Time;durP1;ratioP1;P1;durP2;ratioP2;P2;SDS_P1;SDS_P2;PMS_P1;PMS_P2;Temp;Humidity;BMP_temperature;BMP_pressure;BME280_temperature;BME280_humidity;BME280_pressure;Samples;Min_cycle;Max_cycle;Signal;HPM_P1;HPM_P2
2022/03/29 00:00:38;;;;;;;13.10;10.93;;;;;;;7.33;87.38;100970.22;4983426;28;20253;-57
2022/03/29 00:03:05;;;;;;;13.17;10.37;;;;;;;7.30;87.13;100972.78;4985471;28;20245;-55
2022/03/29 00:05:32;;;;;;;14.10;10.87;;;;;;;7.34;86.78;100972.00;4983905;28;20705;-57
2022/03/29 00:07:58;;;;;;;15.37;12.10;;;;;;;7.30;87.68;100971.06;4983299;28;20233;-62
2022/03/29 00:10:25;;;;;;;12.97;10.20;;;;;;;7.17;87.33;100967.38;5004840;28;20229;-57
2022/03/29 00:12:53;;;;;;;13.27;10.87;;;;;;;7.21;88.21;100963.06;4991770;28;20230;-56
2022/03/29 00:15:21;;;;;;;14.40;11.30;;;;;;;7.22;88.28;100966.56;4985658;28;20246;-57
2022/03/29 00:17:48;;;;;;;14.63;11.97;;;;;;;7.03;88.69;100960.16;4983437;28;20292;-56
2022/03/29 00:20:15;;;;;;;12.53;11.07;;;;;;;6.93;89.76;100966.94;4983652;28;20313;-57
2022/03/29 00:22:41;;;;;;;14.80;10.53;;;;;;;6.94;90.76;100963.47;4983873;28;20245;-56
2022/03/29 00:25:09;;;;;;;15.40;11.43;;;;;;;7.10;90.38;100955.06;4988391;28;20703;-56
2022/03/29 00:27:35;;;;;;;13.07;10.50;;;;;;;7.05;89.85;100963.66;4987942;28;21041;-56
2022/03/29 00:30:01;;;;;;;14.00;10.23;;;;;;;6.98;90.42;100954.84;5004558;28;20229;-57
2022/03/29 00:32:29;;;;;;;11.57;10.03;;;;;;;7.17;89.67;100956.06;5000439;28;20623;-57
2022/03/29 00:34:56;;;;;;;12.37;10.37;;;;;;;7.13;89.62;100962.09;5000436;28;20290;-56
2022/03/29 00:37:22;;;;;;;12.53;11.30;;;;;;;7.08;89.24;100956.75;5004053;28;20299;-56
2022/03/29 00:39:48;;;;;;;17.20;10.20;;;;;;;7.30;88.96;100954.50;5004321;28;20241;-57
2022/03/29 00:42:15;;;;;;;16.03;10.90;;;;;;;7.24;88.95;100957.91;5002937;28;20233;-57
2022/03/29 00:44:42;;;;;;;14.57;10.73;;;;;;;7.23;89.59;100957.88;5003955;28;20249;-57
2022/03/29 00:47:08;;;;;;;13.20;11.00;;;;;;;7.05;89.75;100948.00;4998444;28;20237;-57
2022/03/29 00:49:36;;;;;;;15.17;11.57;;;;;;;6.98;90.43;100949.63;5004088;28;20240;-57
2022/03/29 00:52:04;;;;;;;15.40;11.57;;;;;;;6.91;90.86;100952.97;4994409;28;20319;-57
2022/03/29 00:54:34;;;;;;;14.57;10.87;;;;;;;6.93;91.36;100943.47;4986873;28;1009435;-57
2022/03/29 00:57:01;;;;;;;12.03;10.70;;;;;;;6.99;90.55;100943.56;5009243;28;20318;-57
2022/03/29 00:59:28;;;;;;;12.43;9.67;;;;;;;7.06;91.27;100942.81;5005024;28;20229;-56
2022/03/29 01:01:57;;;;;;;14.03;11.70;;;;;;;7.17;90.61;100933.44;5003859;28;20253;-57
2022/03/29 01:04:23;;;;;;;12.20;10.73;;;;;;;7.26;89.80;100939.63;5007591;28;20248;-57
2022/03/29 01:06:51;;;;;;;11.33;10.00;;;;;;;7.34;89.42;100933.69;5002652;28;20295;-57
2022/03/29 01:09:17;;;;;;;14.73;11.37;;;;;;;7.18;89.41;100926.47;5004124;28;20300;-57
2022/03/29 01:11:44;;;;;;;14.23;10.97;;;;;;;7.18;90.23;100929.06;5004840;28;20244;-58
2022/03/29 01:14:11;;;;;;;13.00;9.70;;;;;;;7.21;90.01;100929.13;5003022;28;20647;-57
2022/03/29 01:19:22;;;;;;;15.63;11.13;;;;;;;7.31;89.56;100927.53;5008798;28;20697;-57
2022/03/29 01:21:56;;;;;;;13.57;10.40;;;;;;;7.35;89.21;100917.16;4999484;28;20249;-57
2022/03/29 01:24:23;;;;;;;14.00;10.73;;;;;;;7.29;89.09;100916.19;5004144;28;20244;-58
2022/03/29 01:26:49;;;;;;;16.87;11.97;;;;;;;7.14;89.88;100909.00;5004289;28;20245;-57
2022/03/29 01:29:16;;;;;;;14.07;10.93;;;;;;;7.17;90.04;100911.66;4997118;28;20233;-57
2022/03/29 01:31:42;;;;;;;13.60;10.10;;;;;;;7.20;90.42;100916.06;4999905;28;20728;-55
2022/03/29 01:34:09;;;;;;;13.37;11.07;;;;;;;7.17;90.44;100912.53;4990354;28;20238;-57
2022/03/29 01:36:36;;;;;;;15.13;10.53;;;;;;;7.24;89.84;100907.41;5011682;28;20719;-58
2022/03/29 01:39:03;;;;;;;13.17;10.83;;;;;;;7.34;89.75;100910.19;5004224;28;20252;-57
2022/03/29 01:41:30;;;;;;;16.93;12.67;;;;;;;7.24;90.29;100910.03;5004129;28;20248;-57
2022/03/29 01:43:57;;;;;;;14.07;11.17;;;;;;;7.28;90.31;100909.22;5005075;28;20284;-57
2022/03/29 01:46:23;;;;;;;13.07;10.83;;;;;;;7.25;89.99;100901.34;5002212;28;20280;-55
2022/03/29 01:48:50;;;;;;;15.17;12.50;;;;;;;7.26;90.03;100901.34;5001539;28;20302;-55
2022/03/29 01:51:16;;;;;;;12.77;10.97;;;;;;;7.13;91.16;100902.91;5002180;28;20241;-57
2022/03/29 01:53:43;;;;;;;12.87;10.53;;;;;;;7.16;90.55;100897.72;5003209;28;20610;-57
2022/03/29 01:56:11;;;;;;;14.37;11.43;;;;;;;7.11;90.93;100907.22;5002594;28;20253;-57
2022/03/29 01:58:37;;;;;;;15.00;12.13;;;;;;;7.12;90.99;100903.72;5003272;28;20237;-57
2022/03/29 02:01:04;;;;;;;17.23;13.70;;;;;;;7.32;90.83;100895.34;5004172;28;20241;-56
2022/03/29 02:03:30;;;;;;;19.50;12.63;;;;;;;7.32;89.92;100893.59;5003275;28;20233;-57
2022/03/29 02:05:59;;;;;;;16.80;12.50;;;;;;;7.35;90.06;100892.78;5004603;28;20229;-56
2022/03/29 02:08:26;;;;;;;15.77;12.23;;;;;;;7.32;90.13;100895.34;5003130;28;20352;-57
2022/03/29 02:10:53;;;;;;;14.77;12.17;;;;;;;7.25;90.41;100886.53;5002774;28;20236;-57
2022/03/29 02:13:21;;;;;;;16.17;12.67;;;;;;;7.21;91.07;100883.88;5001043;28;20245;-56
2022/03/29 02:15:48;;;;;;;15.57;12.03;;;;;;;7.21;90.72;100889.97;5004477;28;20237;-57
2022/03/29 02:18:15;;;;;;;13.93;11.87;;;;;;;7.19;90.41;100896.88;5001984;28;20256;-57
2022/03/29 02:20:42;;;;;;;15.83;12.20;;;;;;;7.13;90.60;100887.25;5001320;28;20781;-57
2022/03/29 02:23:12;;;;;;;17.73;13.53;;;;;;;7.12;90.70;100882.84;4994303;28;20234;-57
2022/03/29 02:25:39;;;;;;;16.40;13.03;;;;;;;7.13;90.76;100878.53;5004131;28;20240;-57
2022/03/29 02:28:05;;;;;;;16.20;12.57;;;;;;;7.20;90.70;100876.91;5003420;28;20723;-57
2022/03/29 02:30:33;;;;;;;18.10;13.07;;;;;;;7.15;90.82;100872.47;5011227;28;20228;-57
2022/03/29 02:33:01;;;;;;;14.77;11.97;;;;;;;7.16;90.26;100878.59;5003395;28;20278;-57
2022/03/29 02:35:28;;;;;;;17.73;12.60;;;;;;;7.17;90.87;100878.59;5007231;28;20331;-56
2022/03/29 02:37:54;;;;;;;16.87;12.67;;;;;;;7.10;91.08;100876.75;5001112;28;20280;-58
2022/03/29 02:40:20;;;;;;;16.80;13.77;;;;;;;7.06;90.80;100874.94;5003158;28;20229;-57
2022/03/29 02:42:48;;;;;;;13.83;11.83;;;;;;;7.08;91.16;100878.44;4999625;28;20790;-57
2022/03/29 02:45:16;;;;;;;14.63;11.57;;;;;;;7.04;90.84;100886.22;5005623;28;20260;-56
2022/03/29 02:47:44;;;;;;;18.10;14.03;;;;;;;7.06;91.40;100874.94;5005508;28;20808;-56
2022/03/29 02:50:11;;;;;;;16.07;12.00;;;;;;;7.15;91.29;100875.06;5014265;28;20302;-57
2022/03/29 02:52:43;;;;;;;18.97;12.53;;;;;;;7.12;91.30;100880.25;5017833;28;20719;-57
2022/03/29 02:55:09;;;;;;;16.97;13.20;;;;;;;7.17;91.21;100870.75;5006701;28;20288;-58
2022/03/29 02:57:36;;;;;;;17.70;12.77;;;;;;;7.20;90.40;100877.78;5004957;28;20252;-57
2022/03/29 03:00:04;;;;;;;15.90;13.77;;;;;;;7.10;90.42;100879.34;5006561;28;20236;-57
2022/03/29 03:02:32;;;;;;;20.00;15.07;;;;;;;7.27;90.18;100877.00;5003415;28;20235;-57
2022/03/29 03:05:00;;;;;;;17.80;13.60;;;;;;;7.12;90.29;100867.19;5007199;28;20633;-55
2022/03/29 03:07:28;;;;;;;18.37;13.77;;;;;;;7.28;90.10;100873.53;5007275;28;20229;-57
2022/03/29 03:09:55;;;;;;;18.80;13.70;;;;;;;7.30;90.04;100868.31;5005997;28;20329;-55
2022/03/29 03:12:21;;;;;;;19.73;13.77;;;;;;;7.30;89.77;100876.16;5002533;28;20233;-55
2022/03/29 03:14:49;;;;;;;16.77;13.47;;;;;;;7.16;90.47;100871.63;5010968;28;20730;-55
2022/03/29 03:17:15;;;;;;;18.47;13.40;;;;;;;7.16;90.73;100876.84;5007955;28;20256;-56
2022/03/29 03:19:44;;;;;;;16.70;13.50;;;;;;;7.09;91.16;100871.47;5005462;28;20232;-56
2022/03/29 03:22:11;;;;;;;18.27;12.30;;;;;;;6.99;91.89;100878.31;5006174;28;20236;-55
2022/03/29 03:24:38;;;;;;;23.30;14.30;;;;;;;7.07;92.16;100873.22;4991368;28;20237;-56
2022/03/29 03:27:06;;;;;;;20.60;15.13;;;;;;;7.23;91.14;100867.38;5006601;28;20233;-56
2022/03/29 03:29:33;;;;;;;17.20;13.47;;;;;;;7.18;90.42;100866.41;5004252;28;20233;-55
2022/03/29 03:31:59;;;;;;;17.43;14.97;;;;;;;7.20;90.92;100869.06;4995349;28;20320;-56
2022/03/29 03:34:26;;;;;;;17.87;14.27;;;;;;;7.16;91.02;100865.53;4997739;28;20737;-55
2022/03/29 03:36:52;;;;;;;16.90;13.97;;;;;;;7.18;91.03;100862.06;5006227;28;20489;-56
2022/03/29 03:39:20;;;;;;;17.53;13.40;;;;;;;7.14;91.39;100857.66;5005967;28;20233;-56
2022/03/29 03:41:48;;;;;;;17.67;14.67;;;;;;;7.16;90.68;100855.09;5006434;28;20253;-57
2022/03/29 03:44:14;;;;;;;18.37;14.87;;;;;;;7.12;91.25;100853.25;4994996;28;20733;-56
2022/03/29 03:46:40;;;;;;;16.00;12.27;;;;;;;7.03;91.85;100859.22;5004362;28;20248;-56
2022/03/29 03:49:07;;;;;;;18.50;13.70;;;;;;;7.11;91.65;100857.59;5000784;28;20237;-57
2022/03/29 03:51:34;;;;;;;16.77;13.67;;;;;;;7.25;91.21;100855.19;5012507;28;20707;-57
2022/03/29 03:54:00;;;;;;;15.97;13.50;;;;;;;7.17;90.74;100854.22;5004101;23;20218;-57
2022/03/29 03:56:28;;;;;;;18.33;13.93;;;;;;;7.06;91.82;100851.44;5000768;28;20712;-56
2022/03/29 03:58:54;;;;;;;17.17;13.17;;;;;;;7.12;91.13;100853.25;4996183;28;20287;-56
2022/03/29 04:01:20;;;;;;;16.93;13.73;;;;;;;6.91;91.53;100853.81;5000300;28;20638;-57
2022/03/29 04:03:46;;;;;;;22.57;14.43;;;;;;;6.99;91.82;100860.03;5003398;28;20308;-56
2022/03/29 04:06:13;;;;;;;18.90;14.90;;;;;;;7.00;91.74;100853.97;5001579;28;20233;-56
2022/03/29 04:08:39;;;;;;;19.33;14.50;;;;;;;7.12;90.28;100854.13;4991007;28;20296;-55
2022/03/29 04:11:07;;;;;;;18.93;13.97;;;;;;;7.04;90.02;100854.88;4996074;28;20242;-56
2022/03/29 04:13:36;;;;;;;20.37;15.63;;;;;;;7.09;90.16;100848.88;4984922;28;20235;-58
2022/03/29 04:16:02;;;;;;;19.37;14.37;;;;;;;6.99;89.95;100849.59;4998404;28;20242;-57
2022/03/29 04:18:28;;;;;;;16.60;14.20;;;;;;;7.07;88.92;100845.38;4992593;28;20226;-57
2022/03/29 04:20:55;;;;;;;20.03;14.47;;;;;;;7.04;88.74;100853.16;4991712;28;20234;-57
2022/03/29 04:23:21;;;;;;;20.60;14.87;;;;;;;6.98;87.93;100844.34;4986448;28;20233;-56
2022/03/29 04:25:48;;;;;;;20.77;15.07;;;;;;;6.99;87.78;100841.78;4999133;28;20740;-56
2022/03/29 04:28:14;;;;;;;20.83;15.07;;;;;;;7.12;87.31;100838.47;4984887;28;20276;-56
2022/03/29 04:30:42;;;;;;;19.70;14.97;;;;;;;6.93;87.41;100836.44;4970724;28;20774;-55
2022/03/29 04:33:08;;;;;;;21.43;16.20;;;;;;;6.92;87.59;100840.78;4986890;28;20265;-55
2022/03/29 04:35:35;;;;;;;19.70;15.63;;;;;;;6.94;87.82;100835.59;4986378;28;20245;-56
2022/03/29 04:38:02;;;;;;;20.57;15.27;;;;;;;6.89;88.18;100834.66;5006591;28;20637;-56
2022/03/29 04:40:28;;;;;;;22.27;15.37;;;;;;;6.90;87.79;100829.44;4992059;28;20280;-56
2022/03/29 04:42:54;;;;;;;20.80;14.90;;;;;;;6.90;88.55;100834.66;4991353;28;20284;-57
2022/03/29 04:45:21;;;;;;;27.87;15.90;;;;;;;6.92;88.31;100835.56;4998091;28;20336;-56
2022/03/29 04:47:48;;;;;;;22.00;14.80;;;;;;;6.96;88.18;100827.78;4991244;28;20263;-56
2022/03/29 04:50:16;;;;;;;19.03;15.30;;;;;;;7.01;87.73;100829.59;4986237;28;20315;-55
2022/03/29 04:52:44;;;;;;;20.07;14.80;;;;;;;6.93;88.29;100826.00;4994781;28;20295;-56
2022/03/29 04:55:11;;;;;;;19.60;15.27;;;;;;;6.92;88.58;100819.91;4989635;28;20253;-56
2022/03/29 04:57:37;;;;;;;20.17;15.93;;;;;;;7.07;87.82;100824.47;4988837;28;20268;-56
2022/03/29 05:00:04;;;;;;;22.37;15.87;;;;;;;7.04;87.58;100810.50;4995779;28;20236;-57
2022/03/29 05:02:31;;;;;;;23.00;15.87;;;;;;;7.11;87.57;100814.97;4996457;28;20257;-56
2022/03/29 05:04:59;;;;;;;18.33;14.17;;;;;;;6.94;88.09;100817.31;4998334;28;20241;-56
2022/03/29 05:07:25;;;;;;;21.10;16.27;;;;;;;6.97;88.80;100817.38;4977729;28;20238;-56
2022/03/29 05:09:51;;;;;;;22.27;16.03;;;;;;;6.94;88.74;100822.53;4969098;28;21027;-56
2022/03/29 05:12:18;;;;;;;22.83;16.63;;;;;;;6.92;88.15;100813.81;4971932;28;20700;-56
2022/03/29 05:14:44;;;;;;;22.03;15.13;;;;;;;6.92;88.57;100819.03;4985601;28;20687;-55
2022/03/29 05:17:11;;;;;;;23.43;15.23;;;;;;;6.96;88.62;100809.53;4990823;28;20264;-56
2022/03/29 05:19:37;;;;;;;21.93;15.60;;;;;;;6.94;88.36;100812.09;4978497;28;20736;-57
2022/03/29 05:22:05;;;;;;;20.33;15.53;;;;;;;7.04;87.57;100811.38;4984511;28;20245;-57
2022/03/29 05:24:31;;;;;;;22.50;15.63;;;;;;;6.91;88.52;100805.13;4983117;28;20237;-56
2022/03/29 05:26:57;;;;;;;20.53;14.73;;;;;;;6.90;89.22;100812.91;4984805;28;20234;-56
2022/03/29 05:29:25;;;;;;;18.33;14.67;;;;;;;6.77;89.75;100808.34;4990378;28;20233;-57
2022/03/29 05:31:51;;;;;;;22.70;15.43;;;;;;;6.87;89.15;100818.06;4985165;28;20237;-56
2022/03/29 05:34:18;;;;;;;34.73;16.43;;;;;;;6.86;89.71;100811.97;4986310;28;20237;-56
2022/03/29 05:36:45;;;;;;;23.60;15.40;;;;;;;6.83;89.36;100814.53;4989150;28;20245;-56
2022/03/29 05:39:14;;;;;;;23.83;16.50;;;;;;;6.88;89.24;100801.56;5003094;28;20230;-57
2022/03/29 05:41:40;;;;;;;24.20;18.03;;;;;;;6.70;90.07;100807.38;4993364;28;20332;-56
2022/03/29 05:44:07;;;;;;;23.23;16.73;;;;;;;6.88;89.68;100817.22;4991193;28;20238;-56
2022/03/29 05:49:19;;;;;;;23.50;16.53;;;;;;;6.98;89.21;100816.50;4982956;28;20284;-57
2022/03/29 05:51:45;;;;;;;23.83;16.07;;;;;;;6.93;88.96;100820.78;4992602;28;20237;-56
2022/03/29 05:54:13;;;;;;;22.83;17.03;;;;;;;6.97;89.58;100819.09;4988877;28;20291;-56
2022/03/29 05:56:40;;;;;;;22.33;16.43;;;;;;;6.91;89.50;100812.94;4986142;28;20320;-57
2022/03/29 05:59:08;;;;;;;29.33;17.23;;;;;;;6.72;89.21;100807.41;4987176;28;20233;-57
2022/03/29 06:01:35;;;;;;;23.73;17.03;;;;;;;6.82;88.91;100809.31;4984161;28;20392;-57
2022/03/29 06:04:06;;;;;;;27.70;18.07;;;;;;;6.71;88.89;100809.16;4989318;28;20237;-57
2022/03/29 06:06:33;;;;;;;23.60;17.37;;;;;;;6.81;88.14;100810.16;4989173;28;20651;-56
2022/03/29 06:08:59;;;;;;;30.43;17.87;;;;;;;6.95;87.33;100808.66;4994789;28;20273;-56
2022/03/29 06:11:27;;;;;;;25.43;15.87;;;;;;;6.92;87.21;100814.69;4997748;28;20290;-57
2022/03/29 06:13:53;;;;;;;37.47;18.17;;;;;;;6.93;86.97;100815.56;4987652;28;20245;-55
2022/03/29 06:16:20;;;;;;;26.17;16.50;;;;;;;6.92;86.54;100819.03;4990152;28;20750;-56
2022/03/29 06:18:46;;;;;;;28.37;18.33;;;;;;;6.94;85.58;100812.09;4995664;28;20379;-56
2022/03/29 06:21:16;;;;;;;28.03;16.33;;;;;;;7.02;85.86;100815.72;5001278;28;20238;-57
2022/03/29 06:23:42;;;;;;;28.30;18.27;;;;;;;7.01;85.62;100818.28;4987429;28;20238;-56
2022/03/29 06:26:09;;;;;;;25.30;17.63;;;;;;;7.07;85.03;100821.88;4988274;28;20348;-56
2022/03/29 06:28:36;;;;;;;25.43;17.20;;;;;;;7.13;84.55;100816.75;4988191;28;20230;-56
2022/03/29 06:31:03;;;;;;;29.63;19.30;;;;;;;7.13;84.15;100805.44;4990424;28;20798;-56
2022/03/29 06:33:29;;;;;;;24.67;16.73;;;;;;;7.07;83.85;100807.94;4996639;28;20236;-55
2022/03/29 06:35:56;;;;;;;27.87;18.43;;;;;;;6.96;85.37;100807.78;4991551;28;20234;-56
2022/03/29 06:38:22;;;;;;;29.57;17.33;;;;;;;7.04;84.98;100808.75;4998045;28;20594;-56
2022/03/29 06:40:50;;;;;;;23.80;15.43;;;;;;;7.08;84.00;100810.56;4994911;28;20919;-56
2022/03/29 06:43:17;;;;;;;25.40;17.23;;;;;;;7.04;82.83;100811.38;5007725;28;20226;-56
2022/03/29 06:45:45;;;;;;;22.80;16.17;;;;;;;7.06;83.57;100811.41;4998332;28;20269;-56
2022/03/29 06:48:12;;;;;;;25.37;16.60;;;;;;;7.22;82.08;100808.16;4997645;28;20242;-55
2022/03/29 06:50:38;;;;;;;23.97;15.40;;;;;;;7.22;81.98;100807.28;4991597;28;20230;-57
2022/03/29 06:53:06;;;;;;;27.00;17.40;;;;;;;7.13;82.14;100811.53;4987500;28;20255;-57
2022/03/29 06:55:33;;;;;;;25.13;16.93;;;;;;;7.27;82.05;100805.63;4985830;28;20650;-57
2022/03/29 06:58:01;;;;;;;26.23;17.13;;;;;;;7.26;81.98;100804.72;4989173;28;20230;-56
2022/03/29 07:00:27;;;;;;;26.03;16.30;;;;;;;7.39;80.53;100816.22;4987256;28;20234;-55
2022/03/29 07:02:55;;;;;;;25.73;16.10;;;;;;;7.41;80.21;100817.13;4973110;28;20591;-56
2022/03/29 07:05:22;;;;;;;24.10;15.77;;;;;;;7.43;79.47;100812.78;4970008;28;20242;-56
2022/03/29 07:07:50;;;;;;;24.10;15.97;;;;;;;7.53;79.19;100819.88;4975518;28;20246;-56
2022/03/29 07:13:01;;;;;;;19.87;14.33;;;;;;;7.70;74.84;100827.06;4988893;28;20268;-58
2022/03/29 07:15:28;;;;;;;17.57;13.07;;;;;;;7.74;72.94;100819.28;4980708;28;20238;-57
2022/03/29 07:17:57;;;;;;;20.93;12.80;;;;;;;7.73;72.65;100822.75;4979869;28;20230;-57
2022/03/29 07:20:24;;;;;;;20.33;14.70;;;;;;;7.63;72.83;100821.75;4984307;28;20296;-57
2022/03/29 07:22:53;;;;;;;22.43;12.20;;;;;;;7.65;72.27;100807.00;4979956;28;20238;-57
2022/03/29 07:25:21;;;;;;;26.33;14.53;;;;;;;7.62;72.84;100809.56;4977232;28;20239;-55
2022/03/29 07:27:49;;;;;;;18.40;12.40;;;;;;;7.72;72.33;100812.25;4983147;28;20234;-56
2022/03/29 07:30:15;;;;;;;18.97;13.70;;;;;;;7.84;71.13;100807.19;4984431;28;20770;-55
2022/03/29 07:32:43;;;;;;;18.97;13.33;;;;;;;7.90;70.71;100812.50;4977558;28;20234;-55
2022/03/29 07:35:11;;;;;;;21.13;12.83;;;;;;;7.88;70.87;100815.06;4979447;28;20767;-55
2022/03/29 07:37:38;;;;;;;18.77;12.70;;;;;;;7.86;69.87;100808.97;4983068;28;20230;-56
2022/03/29 07:40:05;;;;;;;17.63;12.17;;;;;;;7.83;69.33;100803.72;4971878;28;20243;-56
2022/03/29 07:42:33;;;;;;;20.73;11.90;;;;;;;7.92;68.86;100807.28;4966853;28;20270;-56
2022/03/29 07:45:00;;;;;;;16.90;12.00;;;;;;;8.06;68.03;100796.09;4975855;28;20241;-55
2022/03/29 07:47:26;;;;;;;19.87;11.40;;;;;;;8.07;67.19;100802.19;4985965;28;20308;-55
2022/03/29 07:49:52;;;;;;;18.83;13.13;;;;;;;8.14;67.68;100806.63;4980467;28;20265;-55
2022/03/29 07:52:20;;;;;;;17.43;11.63;;;;;;;7.94;67.67;100803.81;4976219;28;20662;-55
2022/03/29 07:54:47;;;;;;;17.87;11.47;;;;;;;7.90;68.02;100802.03;4980907;28;20292;-57
2022/03/29 07:57:13;;;;;;;20.80;11.60;;;;;;;8.01;66.39;100800.41;4980829;28;20226;-56
2022/03/29 07:59:40;;;;;;;16.53;10.93;;;;;;;8.15;65.00;100794.44;4979993;28;20233;-56
2022/03/29 08:02:09;;;;;;;22.17;12.07;;;;;;;8.36;65.27;100805.13;4977317;28;20250;-55
2022/03/29 08:04:36;;;;;;;18.07;11.50;;;;;;;8.34;65.25;100802.47;4985377;28;20249;-55
2022/03/29 08:07:02;;;;;;;17.43;12.10;;;;;;;8.24;66.07;100798.00;4983278;28;20230;-55
2022/03/29 08:09:30;;;;;;;18.77;11.60;;;;;;;8.15;67.23;100789.22;4979125;28;20713;-55
2022/03/29 08:11:56;;;;;;;17.63;11.50;;;;;;;8.28;67.25;100793.69;4984321;28;20230;-56
2022/03/29 08:14:25;;;;;;;19.40;12.83;;;;;;;8.37;67.50;100796.41;4977290;28;20231;-57
2022/03/29 08:16:53;;;;;;;14.47;11.37;;;;;;;8.48;67.08;100783.44;4980325;28;20254;-58
2022/03/29 08:19:19;;;;;;;17.33;10.93;;;;;;;8.71;65.56;100776.66;4985897;28;20242;-55
2022/03/29 08:21:52;;;;;;;19.57;12.37;;;;;;;8.85;63.49;100768.91;4985341;28;20288;-54
2022/03/29 08:24:20;;;;;;;14.40;11.00;;;;;;;8.95;61.84;100768.09;4980404;28;20249;-56
2022/03/29 08:26:49;;;;;;;14.03;10.97;;;;;;;9.00;60.89;100766.34;4977488;28;20278;-57
2022/03/29 08:29:16;;;;;;;18.47;10.97;;;;;;;8.93;60.52;100761.94;4982444;28;20227;-57
2022/03/29 08:31:43;;;;;;;20.27;11.70;;;;;;;9.11;61.78;100755.06;4980309;28;20671;-56
2022/03/29 08:34:09;;;;;;;16.13;11.43;;;;;;;9.20;62.08;100748.13;4983449;28;20241;-57
2022/03/29 08:36:38;;;;;;;18.03;10.67;;;;;;;9.27;61.53;100765.63;4984163;28;20315;-57
2022/03/29 08:39:04;;;;;;;17.80;11.40;;;;;;;9.18;60.57;100756.84;4974707;28;20666;-59
2022/03/29 08:41:36;;;;;;;19.98;13.82;;;;;;;9.37;59.08;100756.09;4975442;28;20430;-62
2022/03/29 08:44:04;;;;;;;18.65;12.32;;;;;;;9.64;58.17;100759.66;4976647;28;20502;-59
2022/03/29 08:46:33;;;;;;;14.70;10.37;;;;;;;9.71;56.51;100758.81;4976855;28;20238;-56
2022/03/29 08:49:00;;;;;;;15.37;11.83;;;;;;;9.70;56.67;100749.19;4973862;28;20307;-63
2022/03/29 08:51:27;;;;;;;16.60;10.97;;;;;;;9.88;56.66;100745.75;4981096;28;20591;-61
2022/03/29 08:53:53;;;;;;;22.23;11.43;;;;;;;9.87;57.52;100737.00;4975868;28;20249;-59
2022/03/29 08:56:20;;;;;;;12.97;10.60;;;;;;;9.81;57.54;100736.97;4966993;28;20235;-62
2022/03/29 08:58:46;;;;;;;15.37;11.13;;;;;;;9.84;56.19;100738.75;4966080;28;20438;-59
2022/03/29 09:01:19;;;;;;;13.77;10.37;;;;;;;9.74;56.31;100733.47;4967734;28;20305;-61
2022/03/29 09:03:45;;;;;;;16.33;10.27;;;;;;;9.70;57.67;100726.47;4983409;28;20238;-61
2022/03/29 09:06:12;;;;;;;15.67;11.33;;;;;;;9.94;56.84;100730.91;4982213;28;20730;-60
2022/03/29 09:08:43;;;;;;;18.67;12.20;;;;;;;10.03;55.94;100720.41;4984187;28;20230;-59
2022/03/29 09:11:09;;;;;;;17.37;12.17;;;;;;;10.08;55.37;100730.03;4983475;28;20288;-60
2022/03/29 09:13:36;;;;;;;14.00;11.53;;;;;;;10.04;53.07;100726.53;4981604;28;20292;-60
2022/03/29 09:16:03;;;;;;;17.23;12.00;;;;;;;10.09;54.13;100716.91;4983376;28;20599;-61
2022/03/29 09:18:31;;;;;;;17.30;11.63;;;;;;;10.24;53.04;100718.66;4985208;28;20652;-67
2022/03/29 09:21:09;;;;;;;16.13;11.70;;;;;;;10.46;52.94;100719.59;4975288;28;20233;-61
2022/03/29 09:23:36;;;;;;;16.10;12.67;;;;;;;10.22;54.37;100726.56;4969198;28;20337;-61
2022/03/29 09:26:03;;;;;;;18.07;14.80;;;;;;;10.38;54.53;100716.94;4966234;28;20475;-63
2022/03/29 09:28:34;;;;;;;20.20;13.77;;;;;;;10.47;54.67;100713.44;4964126;28;20231;-59
2022/03/29 09:31:00;;;;;;;19.37;14.00;;;;;;;10.40;53.79;100704.72;4977997;28;20230;-68
2022/03/29 09:33:31;;;;;;;15.67;12.87;;;;;;;10.52;54.64;100714.31;4963461;28;20299;-68
2022/03/29 09:35:59;;;;;;;19.10;13.40;;;;;;;10.63;54.68;100707.28;4967757;28;20238;-62
2022/03/29 09:38:27;;;;;;;17.83;13.07;;;;;;;10.60;53.80;100709.03;4983521;28;20230;-61
2022/03/29 09:40:54;;;;;;;18.23;13.60;;;;;;;10.78;52.36;100706.41;4965403;28;20234;-60
2022/03/29 09:43:22;;;;;;;16.40;12.83;;;;;;;10.80;52.55;100696.75;4964095;28;20238;-62
2022/03/29 09:45:50;;;;;;;16.17;12.30;;;;;;;11.07;50.77;100697.56;4961502;28;20332;-61
2022/03/29 09:48:32;;;;;;;19.57;14.47;;;;;;;11.21;50.93;100701.00;4977458;28;20661;-61
2022/03/29 09:51:16;;;;;;;19.25;15.45;;;;;;;11.07;51.03;100702.81;4982637;28;20904;-63
2022/03/29 09:53:44;;;;;;;18.97;13.30;;;;;;;10.88;51.60;100700.25;4988714;28;20987;-59
2022/03/29 09:56:11;;;;;;;17.93;12.33;;;;;;;10.96;50.64;100694.97;5010545;23;20295;-71
2022/03/29 09:58:38;;;;;;;18.97;12.27;;;;;;;11.10;49.40;100692.31;4986351;28;20291;-70
2022/03/29 10:01:06;;;;;;;15.23;11.37;;;;;;;11.02;49.05;100694.06;4990643;28;20237;-69
2022/03/29 10:03:34;;;;;;;26.67;12.93;;;;;;;11.26;48.58;100700.97;5000112;28;20291;-61
2022/03/29 10:06:05;;;;;;;14.97;11.83;;;;;;;11.35;48.22;100693.94;4983606;28;20246;-58
2022/03/29 10:11:22;;;;;;;14.27;11.17;;;;;;;11.28;47.62;100692.22;4973064;28;20236;-63
2022/03/29 10:13:49;;;;;;;12.50;9.77;;;;;;;11.18;48.05;100682.63;4985110;28;20258;-62
2022/03/29 10:16:17;;;;;;;12.90;10.77;;;;;;;11.14;48.21;100678.25;4986416;28;20408;-61
2022/03/29 10:18:46;;;;;;;17.20;12.00;;;;;;;11.19;48.17;100673.84;4978617;28;20258;-62
2022/03/29 10:21:16;;;;;;;16.10;10.40;;;;;;;11.09;46.68;100667.78;4991725;28;20233;-62
2022/03/29 10:23:44;;;;;;;14.00;10.17;;;;;;;11.16;45.65;100671.22;4972876;28;20230;-61
2022/03/29 10:26:11;;;;;;;14.03;9.80;;;;;;;11.11;46.16;100666.00;4973766;28;20596;-61
2022/03/29 10:28:37;;;;;;;13.80;10.50;;;;;;;11.21;46.52;100662.44;4971218;28;20229;-61
2022/03/29 10:31:04;;;;;;;13.23;10.00;;;;;;;11.36;46.77;100660.63;4979140;28;20241;-63
2022/03/29 10:33:33;;;;;;;13.73;10.83;;;;;;;11.50;46.18;100647.41;4988297;28;20237;-63
2022/03/29 10:36:09;;;;;;;16.23;11.13;;;;;;;11.50;45.69;100655.28;4972162;28;20321;-63
2022/03/29 10:38:56;;;;;;;14.07;11.63;;;;;;;11.54;46.20;100644.72;4977479;28;20282;-70
2022/03/29 10:41:51;;;;;;;14.67;11.47;;;;;;;11.59;47.70;100650.00;4967712;28;20944;-72
2022/03/29 10:44:18;;;;;;;13.57;10.70;;;;;;;11.54;46.75;100652.63;4986497;28;20230;-62
2022/03/29 10:46:46;;;;;;;21.50;11.30;;;;;;;11.62;46.88;100647.34;4989681;28;20245;-70
2022/03/29 10:49:21;;;;;;;16.60;11.13;;;;;;;11.38;45.93;100646.59;4990662;28;20229;-66
2022/03/29 10:51:49;;;;;;;15.53;10.70;;;;;;;11.34;46.88;100638.75;4993115;28;20288;-64
2022/03/29 10:54:30;;;;;;;19.07;11.10;;;;;;;11.62;46.45;100631.56;4986313;28;20238;-66
2022/03/29 10:56:58;;;;;;;13.63;10.67;;;;;;;11.69;46.28;100628.00;4986183;28;20236;-73
2022/03/29 10:59:25;;;;;;;16.17;10.53;;;;;;;11.63;44.93;100638.56;4984930;28;20237;-75
2022/03/29 11:02:10;;;;;;;11.50;8.67;;;;;;;11.79;43.02;100627.03;4992704;28;20240;-70
2022/03/29 11:04:37;;;;;;;11.70;8.57;;;;;;;11.80;41.75;100636.69;4984878;28;20590;-63
2022/03/29 11:07:14;;;;;;;13.50;9.30;;;;;;;11.60;41.87;100628.06;4990860;28;20722;-73
2022/03/29 11:09:44;;;;;;;13.07;9.23;;;;;;;11.72;41.84;100622.69;4993300;28;20241;-73
2022/03/29 11:12:38;;;;;;;13.83;9.57;;;;;;;11.93;42.18;100624.31;4989671;28;20234;-75
2022/03/29 11:15:46;;;;;;;14.30;9.13;;;;;;;11.97;41.60;100609.38;4990332;28;20237;-67
2022/03/29 11:18:39;;;;;;;12.25;8.32;;;;;;;12.26;40.88;100617.91;4966884;28;20431;-75
2022/03/29 11:21:06;;;;;;;12.77;8.77;;;;;;;12.21;39.19;100606.53;4982975;28;20438;-70
2022/03/29 11:23:35;;;;;;;9.18;8.10;;;;;;;12.23;38.84;100607.38;4978412;28;20300;-71
2022/03/29 11:26:08;;;;;;;10.40;7.43;;;;;;;12.20;39.56;100606.56;4994360;28;20238;-71
2022/03/29 11:28:35;;;;;;;11.05;7.82;;;;;;;12.13;39.63;100595.19;4986736;28;20774;-71
2022/03/29 11:31:02;;;;;;;10.10;6.27;;;;;;;12.23;37.99;100602.13;4986888;28;20234;-69